sensor_id;sensor_type;location;lat;lon;timestamp;pressure;altitude;pressure_sealevel;temperature;humidity
57024;BME280;42916;54.346;18.562;2023-12-29T00:00:58;99563.02;;;5.53;100.00
57024;BME280;42916;54.346;18.562;2023-12-29T00:03:38;99557.48;;;5.51;100.00
57024;BME280;42916;54.346;18.562;2023-12-29T00:06:05;99557.05;;;5.48;100.00
57024;BME280;42916;54.346;18.562;2023-12-29T00:08:32;99556.11;;;5.51;100.00
57024;BME280;42916;54.346;18.562;2023-12-29T00:10:59;99552.25;;;5.52;100.00
57024;BME280;42916;54.346;18.562;2023-12-29T00:13:26;99552.02;;;5.52;100.00
57024;BME280;42916;54.346;18.562;2023-12-29T00:15:53;99549.38;;;5.51;100.00
57024;BME280;42916;54.346;18.562;2023-12-29T00:18:20;99551.11;;;5.55;100.00
57024;BME280;42916;54.346;18.562;2023-12-29T00:20:47;99545.23;;;5.58;100.00
57024;BME280;42916;54.346;18.562;2023-12-29T00:23:17;99546.34;;;5.60;100.00
57024;BME280;42916;54.346;18.562;2023-12-29T00:25:44;99545.16;;;5.59;100.00
57024;BME280;42916;54.346;18.562;2023-12-29T00:28:10;99537.63;;;5.58;100.00
57024;BME280;42916;54.346;18.562;2023-12-29T00:30:38;99533.40;;;5.57;100.00
57024;BME280;42916;54.346;18.562;2023-12-29T00:33:06;99534.15;;;5.53;100.00
57024;BME280;42916;54.346;18.562;2023-12-29T00:35:36;99534.90;;;5.50;100.00
57024;BME280;42916;54.346;18.562;2023-12-29T00:38:04;99526.36;;;5.46;100.00
57024;BME280;42916;54.346;18.562;2023-12-29T00:40:34;99523.64;;;5.42;100.00
57024;BME280;42916;54.346;18.562;2023-12-29T00:43:01;99516.14;;;5.38;100.00
57024;BME280;42916;54.346;18.562;2023-12-29T00:45:28;99518.27;;;5.34;100.00
57024;BME280;42916;54.346;18.562;2023-12-29T00:47:59;99520.35;;;5.34;100.00
57024;BME280;42916;54.346;18.562;2023-12-29T00:50:26;99518.23;;;5.35;100.00
57024;BME280;42916;54.346;18.562;2023-12-29T00:52:53;99523.80;;;5.35;100.00
57024;BME280;42916;54.346;18.562;2023-12-29T00:55:19;99520.20;;;5.37;100.00
57024;BME280;42916;54.346;18.562;2023-12-29T00:57:46;99519.58;;;5.38;100.00
57024;BME280;42916;54.346;18.562;2023-12-29T01:00:13;99518.63;;;5.36;100.00
57024;BME280;42916;54.346;18.562;2023-12-29T01:02:40;99518.58;;;5.33;100.00
57024;BME280;42916;54.346;18.562;2023-12-29T01:05:07;99519.98;;;5.31;100.00
57024;BME280;42916;54.346;18.562;2023-12-29T01:07:33;99518.79;;;5.30;100.00
57024;BME280;42916;54.346;18.562;2023-12-29T01:10:00;99515.67;;;5.27;100.00
57024;BME280;42916;54.346;18.562;2023-12-29T01:12:28;99513.39;;;5.27;100.00
57024;BME280;42916;54.346;18.562;2023-12-29T01:14:54;99514.15;;;5.27;100.00
57024;BME280;42916;54.346;18.562;2023-12-29T01:17:22;99507.76;;;5.25;100.00
57024;BME280;42916;54.346;18.562;2023-12-29T01:19:48;99506.57;;;5.22;100.00
57024;BME280;42916;54.346;18.562;2023-12-29T01:22:15;99493.40;;;5.22;100.00
57024;BME280;42916;54.346;18.562;2023-12-29T01:24:42;99487.74;;;5.22;100.00
57024;BME280;42916;54.346;18.562;2023-12-29T01:27:08;99478.69;;;5.22;100.00
57024;BME280;42916;54.346;18.562;2023-12-29T01:29:35;99467.77;;;5.23;100.00
57024;BME280;42916;54.346;18.562;2023-12-29T01:32:02;99474.91;;;5.25;100.00
57024;BME280;42916;54.346;18.562;2023-12-29T01:34:30;99470.58;;;5.27;100.00
57024;BME280;42916;54.346;18.562;2023-12-29T01:37:05;99469.45;;;5.30;100.00
57024;BME280;42916;54.346;18.562;2023-12-29T01:39:33;99467.04;;;5.28;100.00
57024;BME280;42916;54.346;18.562;2023-12-29T01:42:01;99456.45;;;5.23;100.00
57024;BME280;42916;54.346;18.562;2023-12-29T01:44:28;99449.60;;;5.18;100.00
57024;BME280;42916;54.346;18.562;2023-12-29T01:46:59;99441.95;;;5.12;100.00
57024;BME280;42916;54.346;18.562;2023-12-29T01:49:27;99445.43;;;5.04;100.00
57024;BME280;42916;54.346;18.562;2023-12-29T01:51:58;99442.24;;;4.98;100.00
57024;BME280;42916;54.346;18.562;2023-12-29T01:54:33;99439.24;;;4.94;100.00
57024;BME280;42916;54.346;18.562;2023-12-29T01:57:02;99437.14;;;4.90;100.00
57024;BME280;42916;54.346;18.562;2023-12-29T01:59:29;99435.04;;;4.87;100.00
57024;BME280;42916;54.346;18.562;2023-12-29T02:01:58;99430.27;;;4.85;100.00
57024;BME280;42916;54.346;18.562;2023-12-29T02:04:25;99428.84;;;4.84;100.00
57024;BME280;42916;54.346;18.562;2023-12-29T02:06:52;99420.13;;;4.82;100.00
57024;BME280;42916;54.346;18.562;2023-12-29T02:09:19;99423.32;;;4.79;100.00
57024;BME280;42916;54.346;18.562;2023-12-29T02:11:47;99412.16;;;4.76;100.00
57024;BME280;42916;54.346;18.562;2023-12-29T02:14:15;99404.05;;;4.73;100.00
57024;BME280;42916;54.346;18.562;2023-12-29T02:17:10;99405.09;;;4.71;100.00
57024;BME280;42916;54.346;18.562;2023-12-29T02:19:43;99404.70;;;4.66;100.00
57024;BME280;42916;54.346;18.562;2023-12-29T02:22:11;99399.39;;;4.63;100.00
57024;BME280;42916;54.346;18.562;2023-12-29T02:24:39;99391.63;;;4.59;100.00
57024;BME280;42916;54.346;18.562;2023-12-29T02:27:17;99387.02;;;4.55;100.00
57024;BME280;42916;54.346;18.562;2023-12-29T02:32:28;99394.67;;;4.49;100.00
57024;BME280;42916;54.346;18.562;2023-12-29T02:34:57;99397.04;;;4.51;100.00
57024;BME280;42916;54.346;18.562;2023-12-29T02:37:27;99398.27;;;4.55;100.00
57024;BME280;42916;54.346;18.562;2023-12-29T02:39:56;99402.36;;;4.57;100.00
57024;BME280;42916;54.346;18.562;2023-12-29T02:42:24;99391.77;;;4.61;100.00
57024;BME280;42916;54.346;18.562;2023-12-29T02:44:50;99375.25;;;4.65;100.00
57024;BME280;42916;54.346;18.562;2023-12-29T02:47:17;99360.71;;;4.68;100.00
57024;BME280;42916;54.346;18.562;2023-12-29T02:49:45;99366.08;;;4.70;100.00
57024;BME280;42916;54.346;18.562;2023-12-29T02:52:12;99363.41;;;4.71;100.00
57024;BME280;42916;54.346;18.562;2023-12-29T02:54:38;99363.49;;;4.70;100.00
57024;BME280;42916;54.346;18.562;2023-12-29T02:57:05;99360.97;;;4.68;100.00
57024;BME280;42916;54.346;18.562;2023-12-29T02:59:32;99360.73;;;4.67;100.00
57024;BME280;42916;54.346;18.562;2023-12-29T03:02:00;99368.25;;;4.65;100.00
57024;BME280;42916;54.346;18.562;2023-12-29T03:04:28;99368.05;;;4.63;100.00
57024;BME280;42916;54.346;18.562;2023-12-29T03:06:55;99361.54;;;4.63;100.00
57024;BME280;42916;54.346;18.562;2023-12-29T03:09:22;99365.34;;;4.62;100.00
57024;BME280;42916;54.346;18.562;2023-12-29T03:11:48;99361.61;;;4.62;100.00
57024;BME280;42916;54.346;18.562;2023-12-29T03:14:15;99368.58;;;4.62;100.00
57024;BME280;42916;54.346;18.562;2023-12-29T03:16:42;99369.61;;;4.60;100.00
57024;BME280;42916;54.346;18.562;2023-12-29T03:19:09;99370.30;;;4.59;100.00
57024;BME280;42916;54.346;18.562;2023-12-29T03:21:35;99359.18;;;4.61;100.00
57024;BME280;42916;54.346;18.562;2023-12-29T03:24:03;99356.92;;;4.64;100.00
57024;BME280;42916;54.346;18.562;2023-12-29T03:26:29;99351.93;;;4.66;100.00
57024;BME280;42916;54.346;18.562;2023-12-29T03:28:56;99347.95;;;4.69;100.00
57024;BME280;42916;54.346;18.562;2023-12-29T03:31:23;99346.05;;;4.74;100.00
57024;BME280;42916;54.346;18.562;2023-12-29T03:33:50;99345.48;;;4.78;100.00
57024;BME280;42916;54.346;18.562;2023-12-29T03:36:17;99341.91;;;4.84;100.00
57024;BME280;42916;54.346;18.562;2023-12-29T03:38:43;99342.09;;;4.88;100.00
57024;BME280;42916;54.346;18.562;2023-12-29T03:41:10;99344.55;;;4.96;100.00
57024;BME280;42916;54.346;18.562;2023-12-29T03:43:37;99337.86;;;5.03;100.00
57024;BME280;42916;54.346;18.562;2023-12-29T03:46:15;99339.70;;;5.07;100.00
57024;BME280;42916;54.346;18.562;2023-12-29T03:48:41;99335.45;;;5.11;100.00
57024;BME280;42916;54.346;18.562;2023-12-29T03:51:08;99325.35;;;5.13;100.00
57024;BME280;42916;54.346;18.562;2023-12-29T03:53:35;99322.16;;;5.10;100.00
57024;BME280;42916;54.346;18.562;2023-12-29T03:56:13;99324.31;;;5.05;100.00
57024;BME280;42916;54.346;18.562;2023-12-29T03:58:40;99321.36;;;4.99;100.00
57024;BME280;42916;54.346;18.562;2023-12-29T04:01:14;99313.40;;;4.94;100.00
57024;BME280;42916;54.346;18.562;2023-12-29T04:03:41;99308.89;;;4.92;100.00
57024;BME280;42916;54.346;18.562;2023-12-29T04:06:08;99303.02;;;4.89;100.00
57024;BME280;42916;54.346;18.562;2023-12-29T04:08:36;99305.15;;;4.87;100.00
57024;BME280;42916;54.346;18.562;2023-12-29T04:11:04;99305.61;;;4.82;100.00
57024;BME280;42916;54.346;18.562;2023-12-29T04:13:31;99299.51;;;4.78;100.00
57024;BME280;42916;54.346;18.562;2023-12-29T04:15:58;99297.15;;;4.76;100.00
57024;BME280;42916;54.346;18.562;2023-12-29T04:18:24;99304.67;;;4.74;100.00
57024;BME280;42916;54.346;18.562;2023-12-29T04:20:51;99299.06;;;4.74;100.00
57024;BME280;42916;54.346;18.562;2023-12-29T04:23:18;99296.88;;;4.76;100.00
57024;BME280;42916;54.346;18.562;2023-12-29T04:25:44;99289.58;;;4.78;100.00
57024;BME280;42916;54.346;18.562;2023-12-29T04:28:12;99283.78;;;4.79;100.00
57024;BME280;42916;54.346;18.562;2023-12-29T04:30:38;99271.75;;;4.78;100.00
57024;BME280;42916;54.346;18.562;2023-12-29T04:33:07;99268.40;;;4.78;100.00
57024;BME280;42916;54.346;18.562;2023-12-29T04:35:33;99268.70;;;4.76;100.00
57024;BME280;42916;54.346;18.562;2023-12-29T04:38:00;99267.33;;;4.74;100.00
57024;BME280;42916;54.346;18.562;2023-12-29T04:40:27;99259.66;;;4.74;100.00
57024;BME280;42916;54.346;18.562;2023-12-29T04:42:54;99255.52;;;4.73;100.00
57024;BME280;42916;54.346;18.562;2023-12-29T04:45:20;99260.62;;;4.73;100.00
57024;BME280;42916;54.346;18.562;2023-12-29T04:47:47;99259.08;;;4.73;100.00
57024;BME280;42916;54.346;18.562;2023-12-29T04:50:14;99258.99;;;4.72;100.00
57024;BME280;42916;54.346;18.562;2023-12-29T04:52:40;99253.64;;;4.71;100.00
57024;BME280;42916;54.346;18.562;2023-12-29T04:55:07;99249.45;;;4.68;100.00
57024;BME280;42916;54.346;18.562;2023-12-29T04:57:35;99242.25;;;4.66;100.00
57024;BME280;42916;54.346;18.562;2023-12-29T05:00:02;99244.46;;;4.63;100.00
57024;BME280;42916;54.346;18.562;2023-12-29T05:02:29;99240.31;;;4.60;100.00
57024;BME280;42916;54.346;18.562;2023-12-29T05:04:56;99232.03;;;4.58;100.00
57024;BME280;42916;54.346;18.562;2023-12-29T05:07:23;99225.95;;;4.58;100.00
57024;BME280;42916;54.346;18.562;2023-12-29T05:09:50;99228.64;;;4.60;100.00
57024;BME280;42916;54.346;18.562;2023-12-29T05:12:17;99231.96;;;4.63;100.00
57024;BME280;42916;54.346;18.562;2023-12-29T05:14:44;99233.77;;;4.65;100.00
57024;BME280;42916;54.346;18.562;2023-12-29T05:17:10;99224.91;;;4.70;100.00
57024;BME280;42916;54.346;18.562;2023-12-29T05:19:37;99224.72;;;4.75;100.00
57024;BME280;42916;54.346;18.562;2023-12-29T05:22:04;99224.16;;;4.80;100.00
57024;BME280;42916;54.346;18.562;2023-12-29T05:24:30;99225.84;;;4.89;100.00
57024;BME280;42916;54.346;18.562;2023-12-29T05:26:57;99217.86;;;4.96;100.00
57024;BME280;42916;54.346;18.562;2023-12-29T05:29:24;99211.70;;;5.03;100.00
57024;BME280;42916;54.346;18.562;2023-12-29T05:31:51;99205.35;;;5.10;100.00
57024;BME280;42916;54.346;18.562;2023-12-29T05:34:17;99193.63;;;5.18;100.00
57024;BME280;42916;54.346;18.562;2023-12-29T05:36:44;99182.26;;;5.26;100.00
57024;BME280;42916;54.346;18.562;2023-12-29T05:39:11;99181.35;;;5.35;100.00
57024;BME280;42916;54.346;18.562;2023-12-29T05:41:38;99191.67;;;5.42;100.00
57024;BME280;42916;54.346;18.562;2023-12-29T05:44:05;99195.53;;;5.48;100.00
57024;BME280;42916;54.346;18.562;2023-12-29T05:46:31;99195.38;;;5.53;100.00
57024;BME280;42916;54.346;18.562;2023-12-29T05:48:58;99197.90;;;5.56;100.00
57024;BME280;42916;54.346;18.562;2023-12-29T05:51:25;99201.70;;;5.59;100.00
57024;BME280;42916;54.346;18.562;2023-12-29T05:53:52;99202.15;;;5.61;100.00
57024;BME280;42916;54.346;18.562;2023-12-29T05:56:20;99207.15;;;5.63;100.00
57024;BME280;42916;54.346;18.562;2023-12-29T05:58:47;99193.65;;;5.68;100.00
57024;BME280;42916;54.346;18.562;2023-12-29T06:01:13;99195.55;;;5.68;100.00
57024;BME280;42916;54.346;18.562;2023-12-29T06:03:40;99204.20;;;5.70;100.00
57024;BME280;42916;54.346;18.562;2023-12-29T06:06:07;99202.91;;;5.71;100.00
57024;BME280;42916;54.346;18.562;2023-12-29T06:08:34;99201.98;;;5.71;100.00
57024;BME280;42916;54.346;18.562;2023-12-29T06:11:01;99196.51;;;5.71;100.00
57024;BME280;42916;54.346;18.562;2023-12-29T06:13:28;99201.14;;;5.71;100.00
57024;BME280;42916;54.346;18.562;2023-12-29T06:15:55;99192.41;;;5.73;100.00
57024;BME280;42916;54.346;18.562;2023-12-29T06:18:23;99192.50;;;5.75;100.00
57024;BME280;42916;54.346;18.562;2023-12-29T06:20:49;99192.89;;;5.78;100.00
57024;BME280;42916;54.346;18.562;2023-12-29T06:23:16;99190.29;;;5.80;100.00
57024;BME280;42916;54.346;18.562;2023-12-29T06:25:43;99187.93;;;5.83;100.00
57024;BME280;42916;54.346;18.562;2023-12-29T06:28:10;99176.48;;;5.82;100.00
57024;BME280;42916;54.346;18.562;2023-12-29T06:30:36;99164.58;;;5.79;100.00
57024;BME280;42916;54.346;18.562;2023-12-29T06:33:03;99165.20;;;5.77;100.00
57024;BME280;42916;54.346;18.562;2023-12-29T06:35:30;99165.55;;;5.74;100.00
57024;BME280;42916;54.346;18.562;2023-12-29T06:37:57;99176.73;;;5.70;100.00
57024;BME280;42916;54.346;18.562;2023-12-29T06:40:23;99180.56;;;5.65;100.00
57024;BME280;42916;54.346;18.562;2023-12-29T06:42:50;99180.15;;;5.61;100.00
57024;BME280;42916;54.346;18.562;2023-12-29T06:45:17;99176.29;;;5.59;100.00
57024;BME280;42916;54.346;18.562;2023-12-29T06:47:43;99170.31;;;5.60;100.00
57024;BME280;42916;54.346;18.562;2023-12-29T06:50:10;99160.28;;;5.66;100.00
57024;BME280;42916;54.346;18.562;2023-12-29T06:52:39;99164.45;;;5.70;100.00
57024;BME280;42916;54.346;18.562;2023-12-29T06:55:07;99171.59;;;5.73;100.00
57024;BME280;42916;54.346;18.562;2023-12-29T06:57:34;99164.95;;;5.74;100.00
57024;BME280;42916;54.346;18.562;2023-12-29T07:00:01;99163.73;;;5.75;100.00
57024;BME280;42916;54.346;18.562;2023-12-29T07:02:28;99163.52;;;5.75;100.00
57024;BME280;42916;54.346;18.562;2023-12-29T07:04:55;99161.29;;;5.74;100.00
57024;BME280;42916;54.346;18.562;2023-12-29T07:07:21;99164.60;;;5.75;100.00
57024;BME280;42916;54.346;18.562;2023-12-29T07:09:48;99170.22;;;5.77;100.00
57024;BME280;42916;54.346;18.562;2023-12-29T07:12:15;99162.60;;;5.79;100.00
57024;BME280;42916;54.346;18.562;2023-12-29T07:14:42;99165.11;;;5.83;100.00
57024;BME280;42916;54.346;18.562;2023-12-29T07:17:08;99165.91;;;5.88;100.00
57024;BME280;42916;54.346;18.562;2023-12-29T07:19:35;99168.02;;;5.93;100.00
57024;BME280;42916;54.346;18.562;2023-12-29T07:22:05;99167.95;;;5.98;100.00
57024;BME280;42916;54.346;18.562;2023-12-29T07:24:35;99170.02;;;6.02;100.00
57024;BME280;42916;54.346;18.562;2023-12-29T07:27:03;99165.00;;;6.02;100.00
57024;BME280;42916;54.346;18.562;2023-12-29T07:29:31;99161.89;;;5.98;100.00
57024;BME280;42916;54.346;18.562;2023-12-29T07:31:57;99155.89;;;5.95;100.00
57024;BME280;42916;54.346;18.562;2023-12-29T07:34:25;99157.11;;;5.93;100.00
57024;BME280;42916;54.346;18.562;2023-12-29T07:36:52;99156.15;;;5.89;100.00
57024;BME280;42916;54.346;18.562;2023-12-29T07:39:20;99157.84;;;5.84;100.00
57024;BME280;42916;54.346;18.562;2023-12-29T07:41:46;99157.13;;;5.79;100.00
57024;BME280;42916;54.346;18.562;2023-12-29T07:44:15;99156.11;;;5.75;100.00
57024;BME280;42916;54.346;18.562;2023-12-29T07:46:42;99155.38;;;5.72;100.00
57024;BME280;42916;54.346;18.562;2023-12-29T07:49:09;99147.49;;;5.72;100.00
57024;BME280;42916;54.346;18.562;2023-12-29T07:51:45;99149.37;;;5.73;100.00
57024;BME280;42916;54.346;18.562;2023-12-29T07:54:12;99145.77;;;5.76;100.00
57024;BME280;42916;54.346;18.562;2023-12-29T07:56:39;99141.20;;;5.78;100.00
57024;BME280;42916;54.346;18.562;2023-12-29T07:59:05;99143.96;;;5.79;100.00
57024;BME280;42916;54.346;18.562;2023-12-29T08:01:32;99144.78;;;5.79;100.00
57024;BME280;42916;54.346;18.562;2023-12-29T08:03:59;99141.57;;;5.83;100.00
57024;BME280;42916;54.346;18.562;2023-12-29T08:06:26;99133.23;;;5.86;100.00
57024;BME280;42916;54.346;18.562;2023-12-29T08:08:54;99138.06;;;5.88;100.00
57024;BME280;42916;54.346;18.562;2023-12-29T08:11:21;99138.00;;;5.93;100.00
57024;BME280;42916;54.346;18.562;2023-12-29T08:13:48;99135.13;;;6.01;100.00
57024;BME280;42916;54.346;18.562;2023-12-29T08:16:16;99124.66;;;6.07;100.00
57024;BME280;42916;54.346;18.562;2023-12-29T08:18:48;99120.54;;;6.11;100.00
57024;BME280;42916;54.346;18.562;2023-12-29T08:21:19;99117.23;;;6.15;100.00
57024;BME280;42916;54.346;18.562;2023-12-29T08:23:46;99120.16;;;6.18;100.00
57024;BME280;42916;54.346;18.562;2023-12-29T08:26:14;99103.77;;;6.20;100.00
57024;BME280;42916;54.346;18.562;2023-12-29T08:28:41;99098.83;;;6.24;100.00
57024;BME280;42916;54.346;18.562;2023-12-29T08:31:07;99097.81;;;6.27;100.00
57024;BME280;42916;54.346;18.562;2023-12-29T08:33:34;99095.83;;;6.29;100.00
57024;BME280;42916;54.346;18.562;2023-12-29T08:36:05;99102.89;;;6.33;100.00
57024;BME280;42916;54.346;18.562;2023-12-29T08:38:33;99107.52;;;6.38;100.00
57024;BME280;42916;54.346;18.562;2023-12-29T08:40:59;99103.48;;;6.41;100.00
57024;BME280;42916;54.346;18.562;2023-12-29T08:43:26;99097.40;;;6.45;100.00
57024;BME280;42916;54.346;18.562;2023-12-29T08:45:53;99102.98;;;6.49;100.00
57024;BME280;42916;54.346;18.562;2023-12-29T08:48:20;99105.34;;;6.54;100.00
57024;BME280;42916;54.346;18.562;2023-12-29T08:50:47;99105.52;;;6.56;100.00
57024;BME280;42916;54.346;18.562;2023-12-29T08:53:14;99096.23;;;6.57;100.00
57024;BME280;42916;54.346;18.562;2023-12-29T08:55:42;99105.16;;;6.59;100.00
57024;BME280;42916;54.346;18.562;2023-12-29T08:58:08;99099.90;;;6.64;100.00
57024;BME280;42916;54.346;18.562;2023-12-29T09:00:38;99099.82;;;6.69;100.00
57024;BME280;42916;54.346;18.562;2023-12-29T09:03:04;99105.20;;;6.74;100.00
57024;BME280;42916;54.346;18.562;2023-12-29T09:05:31;99104.57;;;6.77;100.00
57024;BME280;42916;54.346;18.562;2023-12-29T09:07:58;99113.25;;;6.83;100.00
57024;BME280;42916;54.346;18.562;2023-12-29T09:10:25;99107.65;;;6.87;100.00
57024;BME280;42916;54.346;18.562;2023-12-29T09:12:52;99108.86;;;6.90;100.00
57024;BME280;42916;54.346;18.562;2023-12-29T09:15:18;99112.61;;;6.95;100.00
57024;BME280;42916;54.346;18.562;2023-12-29T09:17:47;99112.73;;;6.98;100.00
57024;BME280;42916;54.346;18.562;2023-12-29T09:20:15;99120.69;;;6.99;100.00
57024;BME280;42916;54.346;18.562;2023-12-29T09:22:42;99122.65;;;6.92;100.00
57024;BME280;42916;54.346;18.562;2023-12-29T09:25:09;99130.34;;;6.83;100.00
57024;BME280;42916;54.346;18.562;2023-12-29T09:27:36;99141.02;;;6.72;100.00
57024;BME280;42916;54.346;18.562;2023-12-29T09:30:04;99133.43;;;6.60;100.00
57024;BME280;42916;54.346;18.562;2023-12-29T09:32:31;99136.38;;;6.46;100.00
57024;BME280;42916;54.346;18.562;2023-12-29T09:34:58;99139.66;;;6.32;100.00
57024;BME280;42916;54.346;18.562;2023-12-29T09:37:24;99139.54;;;6.24;100.00
57024;BME280;42916;54.346;18.562;2023-12-29T09:39:51;99139.02;;;6.18;100.00
57024;BME280;42916;54.346;18.562;2023-12-29T09:42:22;99146.27;;;6.14;100.00
57024;BME280;42916;54.346;18.562;2023-12-29T09:44:52;99151.44;;;6.11;100.00
57024;BME280;42916;54.346;18.562;2023-12-29T09:47:24;99148.65;;;6.08;100.00
57024;BME280;42916;54.346;18.562;2023-12-29T09:49:52;99148.27;;;6.09;100.00
57024;BME280;42916;54.346;18.562;2023-12-29T09:52:21;99149.39;;;6.07;100.00
57024;BME280;42916;54.346;18.562;2023-12-29T09:54:52;99152.73;;;6.07;100.00
57024;BME280;42916;54.346;18.562;2023-12-29T09:57:19;99161.00;;;6.07;100.00
57024;BME280;42916;54.346;18.562;2023-12-29T09:59:48;99160.08;;;6.07;100.00
57024;BME280;42916;54.346;18.562;2023-12-29T10:02:19;99161.70;;;6.07;100.00
57024;BME280;42916;54.346;18.562;2023-12-29T10:04:46;99160.91;;;6.04;100.00
57024;BME280;42916;54.346;18.562;2023-12-29T10:07:24;99155.01;;;6.01;100.00
57024;BME280;42916;54.346;18.562;2023-12-29T10:09:57;99148.14;;;6.00;100.00
57024;BME280;42916;54.346;18.562;2023-12-29T10:12:25;99154.13;;;6.00;100.00
57024;BME280;42916;54.346;18.562;2023-12-29T10:20:28;99113.15;;;6.08;100.00
57024;BME280;42916;54.346;18.562;2023-12-29T10:23:05;99090.61;;;6.16;100.00
57024;BME280;42916;54.346;18.562;2023-12-29T10:25:34;99087.36;;;6.24;100.00
57024;BME280;42916;54.346;18.562;2023-12-29T10:28:02;99070.35;;;6.30;100.00
57024;BME280;42916;54.346;18.562;2023-12-29T10:30:30;99103.92;;;6.35;100.00
57024;BME280;42916;54.346;18.562;2023-12-29T10:32:58;99113.56;;;6.38;100.00
57024;BME280;42916;54.346;18.562;2023-12-29T10:35:26;99112.44;;;6.39;100.00
57024;BME280;42916;54.346;18.562;2023-12-29T10:37:53;99098.66;;;6.39;100.00
57024;BME280;42916;54.346;18.562;2023-12-29T10:40:22;99087.16;;;6.40;100.00
57024;BME280;42916;54.346;18.562;2023-12-29T10:42:53;99078.53;;;6.43;100.00
57024;BME280;42916;54.346;18.562;2023-12-29T10:45:21;99074.83;;;6.46;100.00
57024;BME280;42916;54.346;18.562;2023-12-29T10:47:48;99074.95;;;6.48;100.00
57024;BME280;42916;54.346;18.562;2023-12-29T10:53:57;99064.73;;;6.56;100.00
57024;BME280;42916;54.346;18.562;2023-12-29T10:56:24;99064.61;;;6.56;100.00
57024;BME280;42916;54.346;18.562;2023-12-29T10:58:58;99068.61;;;6.56;100.00
57024;BME280;42916;54.346;18.562;2023-12-29T11:01:26;99067.11;;;6.58;100.00
57024;BME280;42916;54.346;18.562;2023-12-29T11:04:03;99072.07;;;6.66;100.00
57024;BME280;42916;54.346;18.562;2023-12-29T11:06:44;99071.02;;;6.82;100.00
57024;BME280;42916;54.346;18.562;2023-12-29T11:09:13;99065.30;;;6.94;100.00
57024;BME280;42916;54.346;18.562;2023-12-29T11:11:41;99064.36;;;7.03;100.00
57024;BME280;42916;54.346;18.562;2023-12-29T11:14:10;99065.05;;;7.14;100.00
57024;BME280;42916;54.346;18.562;2023-12-29T11:16:39;99063.29;;;7.23;100.00
57024;BME280;42916;54.346;18.562;2023-12-29T11:19:10;99070.09;;;7.31;100.00
57024;BME280;42916;54.346;18.562;2023-12-29T11:21:39;99071.23;;;7.34;100.00
57024;BME280;42916;54.346;18.562;2023-12-29T11:24:08;99066.04;;;7.43;100.00
57024;BME280;42916;54.346;18.562;2023-12-29T11:26:36;99072.24;;;7.49;100.00
57024;BME280;42916;54.346;18.562;2023-12-29T11:29:04;99076.89;;;7.48;100.00
57024;BME280;42916;54.346;18.562;2023-12-29T11:31:31;99072.40;;;7.51;100.00
57024;BME280;42916;54.346;18.562;2023-12-29T11:34:05;99080.23;;;7.48;100.00
57024;BME280;42916;54.346;18.562;2023-12-29T11:36:40;99076.55;;;7.47;100.00
57024;BME280;42916;54.346;18.562;2023-12-29T11:39:23;99079.33;;;7.50;100.00
57024;BME280;42916;54.346;18.562;2023-12-29T11:42:02;99079.17;;;7.50;100.00
57024;BME280;42916;54.346;18.562;2023-12-29T11:44:32;99079.27;;;7.49;100.00
57024;BME280;42916;54.346;18.562;2023-12-29T11:47:00;99086.02;;;7.48;100.00
57024;BME280;42916;54.346;18.562;2023-12-29T11:49:26;99094.12;;;7.42;100.00
57024;BME280;42916;54.346;18.562;2023-12-29T11:51:53;99098.81;;;7.38;100.00
57024;BME280;42916;54.346;18.562;2023-12-29T11:54:24;99096.27;;;7.35;100.00
57024;BME280;42916;54.346;18.562;2023-12-29T11:56:52;99087.71;;;7.32;100.00
57024;BME280;42916;54.346;18.562;2023-12-29T11:59:20;99083.63;;;7.24;100.00
57024;BME280;42916;54.346;18.562;2023-12-29T12:01:49;99084.09;;;7.15;100.00
57024;BME280;42916;54.346;18.562;2023-12-29T12:04:38;99085.51;;;7.06;100.00
57024;BME280;42916;54.346;18.562;2023-12-29T12:12:53;99077.42;;;7.12;100.00
57024;BME280;42916;54.346;18.562;2023-12-29T12:18:00;99085.88;;;7.17;100.00
57024;BME280;42916;54.346;18.562;2023-12-29T12:20:27;99091.03;;;7.22;100.00
57024;BME280;42916;54.346;18.562;2023-12-29T12:22:59;99095.27;;;7.25;100.00
57024;BME280;42916;54.346;18.562;2023-12-29T12:25:29;99102.46;;;7.27;100.00
57024;BME280;42916;54.346;18.562;2023-12-29T12:27:56;99105.39;;;7.28;100.00
57024;BME280;42916;54.346;18.562;2023-12-29T12:30:23;99108.05;;;7.30;99.82
57024;BME280;42916;54.346;18.562;2023-12-29T12:33:00;99111.09;;;7.34;99.91
57024;BME280;42916;54.346;18.562;2023-12-29T12:35:27;99114.67;;;7.38;99.70
57024;BME280;42916;54.346;18.562;2023-12-29T12:38:14;99112.95;;;7.39;99.05
57024;BME280;42916;54.346;18.562;2023-12-29T12:40:54;99114.79;;;7.39;99.15
57024;BME280;42916;54.346;18.562;2023-12-29T12:43:25;99116.09;;;7.41;99.26
57024;BME280;42916;54.346;18.562;2023-12-29T12:45:55;99110.20;;;7.43;99.41
57024;BME280;42916;54.346;18.562;2023-12-29T12:48:44;99114.98;;;7.43;99.66
57024;BME280;42916;54.346;18.562;2023-12-29T12:51:13;99114.69;;;7.42;99.81
57024;BME280;42916;54.346;18.562;2023-12-29T12:53:41;99109.97;;;7.39;99.80
57024;BME280;42916;54.346;18.562;2023-12-29T12:56:09;99115.86;;;7.37;99.78
57024;BME280;42916;54.346;18.562;2023-12-29T12:58:37;99118.68;;;7.36;99.92
57024;BME280;42916;54.346;18.562;2023-12-29T13:01:04;99114.57;;;7.36;99.79
57024;BME280;42916;54.346;18.562;2023-12-29T13:03:31;99111.98;;;7.38;99.81
57024;BME280;42916;54.346;18.562;2023-12-29T13:05:59;99107.16;;;7.37;99.96
57024;BME280;42916;54.346;18.562;2023-12-29T13:08:27;99111.11;;;7.37;99.72
57024;BME280;42916;54.346;18.562;2023-12-29T13:10:54;99114.88;;;7.34;99.91
57024;BME280;42916;54.346;18.562;2023-12-29T13:13:21;99114.02;;;7.32;99.65
57024;BME280;42916;54.346;18.562;2023-12-29T13:15:48;99119.40;;;7.29;99.61